Time;durP1;ratioP1;P1;durP2;ratioP2;P2;SDS_P1;SDS_P2;PMS_P1;PMS_P2;Temp;Humidity;BMP_temperature;BMP_pressure;BME280_temperature;BME280_humidity;BME280_pressure;Samples;Min_cycle;Max_cycle;Signal;HPM_P1;HPM_P2
2023/03/05 00:14:15;;;;;;;8.10;4.35;;;;;;;1.98;57.20;99945.75;30608304;28;96737;-62
2023/03/05 00:29:20;;;;;;;7.07;3.85;;;;;;;1.94;56.58;99930.34;30607315;28;98823;-62
2023/03/05 00:44:21;;;;;;;7.40;3.08;;;;;;;1.90;56.43;99908.75;30627562;28;97462;-63
2023/03/05 00:59:21;;;;;;;7.88;2.88;;;;;;;1.71;56.67;99893.59;30626009;28;96567;-63
2023/03/05 01:14:22;;;;;;;7.75;2.45;;;;;;;1.77;56.30;99882.59;30624936;28;96707;-62
2023/03/05 01:29:22;;;;;;;5.78;1.63;;;;;;;1.75;56.12;99868.75;30623476;28;97213;-62
2023/03/05 01:44:28;;;;;;;5.28;2.45;;;;;;;1.56;55.16;99853.63;30621102;28;96682;-63
2023/03/05 01:59:29;;;;;;;7.13;2.65;;;;;;;1.28;55.64;99844.44;30620488;28;96565;-62
2023/03/05 02:14:31;;;;;;;4.63;2.42;;;;;;;1.08;56.30;99843.34;30619247;28;96639;-62
2023/03/05 02:29:33;;;;;;;5.70;3.05;;;;;;;1.09;57.29;99834.50;30618123;28;96907;-62
2023/03/05 02:44:34;;;;;;;5.75;2.53;;;;;;;1.15;58.11;99829.63;30616357;28;96641;-62
2023/03/05 02:59:34;;;;;;;3.22;1.33;;;;;;;0.94;59.10;99811.13;30615099;28;97624;-62
2023/03/05 03:14:38;;;;;;;1.70;0.88;;;;;;;0.76;59.61;99817.78;30613240;28;98505;-62
2023/03/05 03:29:38;;;;;;;3.40;1.67;;;;;;;0.31;60.26;99784.41;30612091;28;97268;-63
2023/03/05 03:44:39;;;;;;;2.50;1.60;;;;;;;-0.01;60.82;99761.47;30611015;28;96927;-62
2023/03/05 03:59:39;;;;;;;3.30;1.73;;;;;;;-0.12;61.83;99738.69;30609820;28;96817;-62
2023/03/05 04:14:39;;;;;;;3.15;1.45;;;;;;;-0.21;62.06;99729.69;30607937;28;96628;-62
2023/03/05 04:29:40;;;;;;;5.25;1.33;;;;;;;-0.26;62.40;99707.41;30606699;28;97167;-62
2023/03/05 04:44:40;;;;;;;4.30;1.60;;;;;;;-0.43;63.79;99688.56;30605674;28;96680;-63
2023/03/05 04:59:40;;;;;;;4.70;1.80;;;;;;;-0.39;64.65;99670.84;30605133;28;96713;-63
2023/03/05 05:14:41;;;;;;;4.93;1.63;;;;;;;-0.38;65.05;99662.06;30602994;28;96669;-63
2023/03/05 05:29:41;;;;;;;4.43;1.73;;;;;;;-0.27;65.87;99656.88;30621897;28;96580;-63
2023/03/05 05:44:42;;;;;;;1.88;1.58;;;;;;;-0.29;66.51;99658.75;30621835;28;96840;-62
2023/03/05 05:59:43;;;;;;;6.72;1.77;;;;;;;-0.22;67.51;99646.88;30620738;28;97470;-63
2023/03/05 06:14:43;;;;;;;2.45;1.38;;;;;;;-0.20;68.47;99641.53;30618597;28;97290;-62
2023/03/05 06:29:44;;;;;;;7.97;3.13;;;;;;;-0.15;69.43;99630.72;30617061;28;97246;-62
2023/03/05 06:44:44;;;;;;;15.63;6.05;;;;;;;-0.07;70.39;99620.50;30614279;28;97481;-62
2023/03/05 06:59:44;;;;;;;6.00;3.50;;;;;;;0.26;71.58;99622.34;30614018;28;96639;-62
2023/03/05 07:14:45;;;;;;;5.30;2.85;;;;;;;0.62;71.72;99622.22;30611955;28;96785;-61
2023/03/05 07:29:45;;;;;;;10.48;2.35;;;;;;;0.98;71.41;99613.19;30611257;28;97101;-61
2023/03/05 07:44:46;;;;;;;7.18;2.30;;;;;;;1.30;69.90;99604.53;30608968;28;96657;-62
2023/03/05 07:59:46;;;;;;;4.43;1.83;;;;;;;1.70;68.09;99608.31;30607827;28;96988;-61
2023/03/05 08:14:46;;;;;;;7.50;1.40;;;;;;;1.92;65.73;99609.97;30606671;28;96660;-61
2023/03/05 08:29:47;;;;;;;3.63;1.00;;;;;;;2.25;65.05;99618.59;30606064;28;96731;-61
2023/03/05 08:44:47;;;;;;;5.72;1.98;;;;;;;2.21;64.80;99611.91;30603937;28;96680;-61
2023/03/05 08:59:48;;;;;;;2.80;1.38;;;;;;;3.07;64.32;99605.44;30617288;28;96679;-62
2023/03/05 09:14:48;;;;;;;4.55;1.35;;;;;;;3.07;62.21;99594.91;30623455;28;97392;-62
2023/03/05 09:29:49;;;;;;;9.00;2.50;;;;;;;2.00;63.20;99609.31;30622881;28;96686;-61
2023/03/05 09:45:20;;;;;;;6.00;2.28;;;;;;;3.68;63.43;99604.34;30619247;28;96758;-63
2023/03/05 10:00:39;;;;;;;4.18;1.65;;;;;;;3.40;61.50;99580.50;30618628;28;96641;-63
2023/03/05 10:15:50;;;;;;;5.32;1.70;;;;;;;4.61;60.17;99570.22;30614576;28;97000;-63
2023/03/05 10:31:03;;;;;;;6.10;2.55;;;;;;;7.31;57.29;99557.19;30618114;28;97900;-62
2023/03/05 10:46:04;;;;;;;3.40;2.20;;;;;;;6.28;53.97;99545.84;30615614;28;96693;-63
2023/03/05 11:01:10;;;;;;;6.10;2.28;;;;;;;4.36;53.90;99533.00;30612954;28;96713;-64
2023/03/05 11:16:29;;;;;;;4.93;2.90;;;;;;;3.72;56.34;99516.97;30611870;28;96797;-63
2023/03/05 11:31:32;;;;;;;4.88;2.58;;;;;;;3.67;57.52;99508.66;30609203;28;97106;-62
2023/03/05 11:46:45;;;;;;;8.60;3.70;;;;;;;3.87;57.65;99482.28;30607283;28;97457;-63
2023/03/05 12:01:50;;;;;;;6.95;3.30;;;;;;;4.10;57.27;99450.25;30607731;28;96727;-62
2023/03/05 12:17:03;;;;;;;7.97;3.65;;;;;;;3.61;57.59;99458.34;30607526;28;97299;-62
2023/03/05 12:32:24;;;;;;;6.90;3.45;;;;;;;5.52;58.33;99444.28;30617123;28;96751;-63
2023/03/05 12:47:25;;;;;;;8.98;3.95;;;;;;;5.70;57.43;99431.84;30625428;28;96669;-62
2023/03/05 13:02:35;;;;;;;5.85;3.17;;;;;;;4.27;57.85;99424.94;30624017;28;96769;-62
2023/03/05 13:17:43;;;;;;;9.98;3.72;;;;;;;3.58;59.40;99429.69;30622697;28;97448;-63
2023/03/05 13:32:43;;;;;;;7.82;2.30;;;;;;;2.93;59.91;99446.97;30621244;28;96644;-63
2023/03/05 13:47:51;;;;;;;3.13;2.15;;;;;;;2.31;61.62;99439.34;30619451;28;96576;-62
2023/03/05 14:02:54;;;;;;;6.20;2.50;;;;;;;1.97;62.01;99441.44;30619303;28;96619;-62
2023/03/05 14:18:10;;;;;;;6.53;3.05;;;;;;;2.22;62.65;99426.19;30616600;28;97642;-62
2023/03/05 14:33:10;;;;;;;4.60;2.35;;;;;;;7.59;58.15;99418.03;30615442;28;96752;-63
2023/03/05 14:48:14;;;;;;;4.10;2.67;;;;;;;5.39;57.35;99416.47;30614267;28;97599;-61
2023/03/05 15:03:16;;;;;;;5.13;2.60;;;;;;;4.29;57.57;99399.22;30612907;28;96816;-64
2023/03/05 15:18:19;;;;;;;5.70;3.13;;;;;;;3.33;58.20;99403.81;30611730;28;96766;-62
2023/03/05 15:33:21;;;;;;;5.80;3.13;;;;;;;2.20;60.40;99405.25;30610744;28;97159;-62
2023/03/05 15:48:21;;;;;;;5.53;3.13;;;;;;;1.93;61.87;99393.59;30608615;28;97010;-62
2023/03/05 16:03:22;;;;;;;6.03;2.55;;;;;;;1.87;63.04;99394.13;30607806;28;96701;-61
2023/03/05 16:18:23;;;;;;;8.32;3.17;;;;;;;1.78;63.41;99401.03;30607927;28;98393;-63
2023/03/05 16:33:24;;;;;;;10.98;5.90;;;;;;;1.57;63.85;99382.69;30608891;28;96630;-62
2023/03/05 16:48:24;;;;;;;11.98;4.53;;;;;;;1.53;64.87;99378.66;30608617;28;98297;-61
2023/03/05 17:03:26;;;;;;;6.13;3.80;;;;;;;1.58;65.33;99405.38;30606772;28;96654;-62
2023/03/05 17:18:26;;;;;;;9.57;4.70;;;;;;;1.34;65.78;99413.56;30618001;28;97084;-62
2023/03/05 17:33:27;;;;;;;7.43;3.20;;;;;;;1.25;66.13;99414.34;30624663;28;96783;-62
2023/03/05 17:48:28;;;;;;;7.35;3.42;;;;;;;1.14;66.94;99425.72;30621380;28;97051;-62
2023/03/05 18:03:28;;;;;;;7.43;3.88;;;;;;;0.99;67.17;99423.41;30622310;28;96647;-62
2023/03/05 18:18:29;;;;;;;8.93;3.47;;;;;;;0.93;67.74;99409.97;30621740;28;96706;-62
2023/03/05 18:33:31;;;;;;;9.63;3.63;;;;;;;0.44;67.39;99396.50;30617985;28;96801;-62
2023/03/05 18:48:32;;;;;;;11.80;5.85;;;;;;;0.14;68.65;99398.84;30618494;28;96761;-62
2023/03/05 19:03:32;;;;;;;10.63;6.00;;;;;;;-0.22;69.09;99392.09;30617164;28;96726;-61
2023/03/05 19:19:18;;;;;;;10.50;6.82;;;;;;;-0.38;70.34;99388.09;30614519;28;96584;-62
2023/03/05 19:34:19;;;;;;;10.05;6.30;;;;;;;-0.47;70.66;99387.97;30613325;28;97047;-62
2023/03/05 19:49:20;;;;;;;12.18;7.78;;;;;;;-0.64;70.86;99386.66;30611301;28;96689;-63
2023/03/05 20:04:22;;;;;;;10.48;5.03;;;;;;;-0.66;71.79;99378.09;30610216;28;96702;-63
2023/03/05 20:19:22;;;;;;;11.32;5.68;;;;;;;-0.79;72.15;99373.81;30610924;28;97147;-63
2023/03/05 20:34:25;;;;;;;5.65;3.35;;;;;;;-0.77;72.76;99368.47;30610748;28;96729;-62
2023/03/05 20:49:26;;;;;;;9.50;5.35;;;;;;;-0.80;73.13;99361.69;30611898;28;96661;-62
2023/03/05 21:04:26;;;;;;;8.30;4.32;;;;;;;-0.82;73.64;99362.75;30628601;28;96646;-63
2023/03/05 21:19:26;;;;;;;8.98;4.20;;;;;;;-0.86;74.01;99354.31;30625894;28;97338;-62
2023/03/05 21:34:27;;;;;;;9.57;4.53;;;;;;;-0.80;74.19;99351.22;30625471;28;96757;-62
2023/03/05 21:49:27;;;;;;;8.60;3.92;;;;;;;-0.72;74.44;99333.16;30622195;28;97032;-62
2023/03/05 22:04:28;;;;;;;8.02;4.05;;;;;;;-0.72;74.14;99324.47;30620923;28;96701;-61
2023/03/05 22:19:28;;;;;;;6.60;3.75;;;;;;;-0.66;74.29;99316.13;30622258;28;96692;-62
2023/03/05 22:34:29;;;;;;;6.68;3.17;;;;;;;-0.64;74.43;99305.56;30620107;28;96673;-62
2023/03/05 22:49:29;;;;;;;9.30;3.78;;;;;;;-0.73;74.52;99299.28;30619748;28;97308;-62
2023/03/05 23:04:56;;;;;;;10.57;4.45;;;;;;;-0.75;74.80;99285.47;30619076;28;96727;-62
2023/03/05 23:19:56;;;;;;;5.28;3.33;;;;;;;-0.74;75.17;99277.53;30616885;28;96584;-62
2023/03/05 23:34:56;;;;;;;8.00;3.47;;;;;;;-0.91;74.28;99280.63;30616405;28;97358;-62
2023/03/05 23:49:57;;;;;;;5.85;3.28;;;;;;;-1.38;74.95;99273.69;30614161;28;96742;-62
